sensor_id;sensor_type;location;lat;lon;timestamp;P1;durP1;ratioP1;P2;durP2;ratioP2
26598;SDS011;14240;51.064;16.612;2023-01-10T00:02:01;46.83;;;21.27;;
26598;SDS011;14240;51.064;16.612;2023-01-10T00:04:28;39.13;;;18.98;;
26598;SDS011;14240;51.064;16.612;2023-01-10T00:06:56;37.53;;;17.08;;
26598;SDS011;14240;51.064;16.612;2023-01-10T00:09:22;35.40;;;17.90;;
26598;SDS011;14240;51.064;16.612;2023-01-10T00:11:48;40.13;;;17.80;;
26598;SDS011;14240;51.064;16.612;2023-01-10T00:14:32;34.85;;;18.08;;
26598;SDS011;14240;51.064;16.612;2023-01-10T00:16:59;39.88;;;18.45;;
26598;SDS011;14240;51.064;16.612;2023-01-10T00:19:28;37.15;;;17.63;;
26598;SDS011;14240;51.064;16.612;2023-01-10T00:21:54;37.67;;;17.00;;
26598;SDS011;14240;51.064;16.612;2023-01-10T00:24:29;37.92;;;16.95;;
26598;SDS011;14240;51.064;16.612;2023-01-10T00:26:56;32.90;;;17.63;;
26598;SDS011;14240;51.064;16.612;2023-01-10T00:29:24;52.30;;;16.83;;
26598;SDS011;14240;51.064;16.612;2023-01-10T00:31:59;37.92;;;16.88;;
26598;SDS011;14240;51.064;16.612;2023-01-10T00:34:25;38.85;;;17.92;;
26598;SDS011;14240;51.064;16.612;2023-01-10T00:36:51;41.08;;;17.85;;
26598;SDS011;14240;51.064;16.612;2023-01-10T00:39:17;34.50;;;16.67;;
26598;SDS011;14240;51.064;16.612;2023-01-10T00:41:45;33.00;;;17.00;;
26598;SDS011;14240;51.064;16.612;2023-01-10T00:44:29;36.20;;;16.88;;
26598;SDS011;14240;51.064;16.612;2023-01-10T00:46:55;32.42;;;16.58;;
26598;SDS011;14240;51.064;16.612;2023-01-10T00:49:21;33.35;;;15.90;;
26598;SDS011;14240;51.064;16.612;2023-01-10T00:51:47;33.85;;;16.42;;
26598;SDS011;14240;51.064;16.612;2023-01-10T00:54:13;30.15;;;14.18;;
26598;SDS011;14240;51.064;16.612;2023-01-10T00:56:39;33.00;;;14.35;;
26598;SDS011;14240;51.064;16.612;2023-01-10T00:59:05;33.08;;;13.70;;
26598;SDS011;14240;51.064;16.612;2023-01-10T01:01:31;28.63;;;13.40;;
26598;SDS011;14240;51.064;16.612;2023-01-10T01:03:57;29.60;;;16.63;;
26598;SDS011;14240;51.064;16.612;2023-01-10T01:06:23;25.95;;;13.43;;
26598;SDS011;14240;51.064;16.612;2023-01-10T01:08:50;28.05;;;13.70;;
26598;SDS011;14240;51.064;16.612;2023-01-10T01:11:16;25.15;;;12.70;;
26598;SDS011;14240;51.064;16.612;2023-01-10T01:13:41;24.40;;;11.23;;
26598;SDS011;14240;51.064;16.612;2023-01-10T01:16:07;19.48;;;10.15;;
26598;SDS011;14240;51.064;16.612;2023-01-10T01:18:33;21.02;;;10.93;;
26598;SDS011;14240;51.064;16.612;2023-01-10T01:20:59;19.73;;;11.18;;
26598;SDS011;14240;51.064;16.612;2023-01-10T01:23:27;23.55;;;12.00;;
26598;SDS011;14240;51.064;16.612;2023-01-10T01:25:54;18.52;;;10.63;;
26598;SDS011;14240;51.064;16.612;2023-01-10T01:28:21;19.77;;;8.88;;
26598;SDS011;14240;51.064;16.612;2023-01-10T01:30:47;17.90;;;7.35;;
26598;SDS011;14240;51.064;16.612;2023-01-10T01:33:14;18.15;;;8.02;;
26598;SDS011;14240;51.064;16.612;2023-01-10T01:35:41;14.73;;;7.72;;
26598;SDS011;14240;51.064;16.612;2023-01-10T01:38:11;15.25;;;7.30;;
26598;SDS011;14240;51.064;16.612;2023-01-10T01:40:37;15.73;;;8.25;;
26598;SDS011;14240;51.064;16.612;2023-01-10T01:45:51;17.30;;;7.30;;
26598;SDS011;14240;51.064;16.612;2023-01-10T01:48:34;10.35;;;6.07;;
26598;SDS011;14240;51.064;16.612;2023-01-10T01:51:15;12.50;;;5.57;;
26598;SDS011;14240;51.064;16.612;2023-01-10T01:53:53;10.75;;;5.07;;
26598;SDS011;14240;51.064;16.612;2023-01-10T01:56:25;14.40;;;7.20;;
26598;SDS011;14240;51.064;16.612;2023-01-10T01:59:16;15.15;;;6.30;;
26598;SDS011;14240;51.064;16.612;2023-01-10T02:01:56;15.35;;;6.25;;
26598;SDS011;14240;51.064;16.612;2023-01-10T02:04:31;13.15;;;6.22;;
26598;SDS011;14240;51.064;16.612;2023-01-10T02:07:13;13.93;;;6.93;;
26598;SDS011;14240;51.064;16.612;2023-01-10T02:10:14;15.95;;;7.43;;
26598;SDS011;14240;51.064;16.612;2023-01-10T02:12:31;17.95;;;9.00;;
26598;SDS011;14240;51.064;16.612;2023-01-10T02:14:57;16.73;;;7.57;;
26598;SDS011;14240;51.064;16.612;2023-01-10T02:17:24;13.35;;;6.05;;
26598;SDS011;14240;51.064;16.612;2023-01-10T02:30:59;15.02;;;5.75;;
26598;SDS011;14240;51.064;16.612;2023-01-10T02:36:34;13.35;;;5.07;;
26598;SDS011;14240;51.064;16.612;2023-01-10T02:42:16;9.73;;;4.03;;
26598;SDS011;14240;51.064;16.612;2023-01-10T02:44:59;9.48;;;3.53;;
26598;SDS011;14240;51.064;16.612;2023-01-10T02:47:36;8.38;;;3.80;;
26598;SDS011;14240;51.064;16.612;2023-01-10T02:53:05;7.75;;;3.78;;
26598;SDS011;14240;51.064;16.612;2023-01-10T03:04:19;9.52;;;4.78;;
26598;SDS011;14240;51.064;16.612;2023-01-10T03:09:30;10.43;;;3.75;;
26598;SDS011;14240;51.064;16.612;2023-01-10T03:12:10;6.85;;;3.42;;
26598;SDS011;14240;51.064;16.612;2023-01-10T03:14:46;6.93;;;3.57;;
26598;SDS011;14240;51.064;16.612;2023-01-10T03:17:14;8.35;;;3.40;;
26598;SDS011;14240;51.064;16.612;2023-01-10T03:19:44;6.65;;;3.70;;
26598;SDS011;14240;51.064;16.612;2023-01-10T03:22:16;6.30;;;3.63;;
26598;SDS011;14240;51.064;16.612;2023-01-10T03:24:44;9.30;;;4.70;;
26598;SDS011;14240;51.064;16.612;2023-01-10T03:27:21;11.68;;;4.95;;
26598;SDS011;14240;51.064;16.612;2023-01-10T03:30:18;7.03;;;3.45;;
26598;SDS011;14240;51.064;16.612;2023-01-10T03:32:56;7.30;;;3.70;;
26598;SDS011;14240;51.064;16.612;2023-01-10T03:35:30;6.70;;;3.65;;
26598;SDS011;14240;51.064;16.612;2023-01-10T03:38:08;6.30;;;3.53;;
26598;SDS011;14240;51.064;16.612;2023-01-10T03:43:18;8.68;;;4.18;;
26598;SDS011;14240;51.064;16.612;2023-01-10T03:46:09;5.55;;;3.42;;
26598;SDS011;14240;51.064;16.612;2023-01-10T03:48:38;10.40;;;4.70;;
26598;SDS011;14240;51.064;16.612;2023-01-10T03:51:07;8.48;;;4.05;;
26598;SDS011;14240;51.064;16.612;2023-01-10T03:53:36;11.80;;;4.65;;
26598;SDS011;14240;51.064;16.612;2023-01-10T03:56:03;7.15;;;4.15;;
26598;SDS011;14240;51.064;16.612;2023-01-10T03:58:29;7.95;;;4.07;;
26598;SDS011;14240;51.064;16.612;2023-01-10T04:00:55;6.30;;;3.65;;
26598;SDS011;14240;51.064;16.612;2023-01-10T04:03:21;9.68;;;4.60;;
26598;SDS011;14240;51.064;16.612;2023-01-10T04:05:47;11.07;;;4.30;;
26598;SDS011;14240;51.064;16.612;2023-01-10T04:08:13;5.95;;;3.78;;
26598;SDS011;14240;51.064;16.612;2023-01-10T04:10:38;8.27;;;4.45;;
26598;SDS011;14240;51.064;16.612;2023-01-10T04:13:04;8.80;;;4.82;;
26598;SDS011;14240;51.064;16.612;2023-01-10T04:15:30;8.80;;;4.45;;
26598;SDS011;14240;51.064;16.612;2023-01-10T04:17:56;10.55;;;4.22;;
26598;SDS011;14240;51.064;16.612;2023-01-10T04:20:22;10.73;;;4.80;;
26598;SDS011;14240;51.064;16.612;2023-01-10T04:22:51;8.85;;;4.07;;
26598;SDS011;14240;51.064;16.612;2023-01-10T04:25:19;13.75;;;4.60;;
26598;SDS011;14240;51.064;16.612;2023-01-10T04:27:49;8.02;;;4.05;;
26598;SDS011;14240;51.064;16.612;2023-01-10T04:30:16;7.97;;;4.15;;
26598;SDS011;14240;51.064;16.612;2023-01-10T04:32:43;9.00;;;3.80;;
26598;SDS011;14240;51.064;16.612;2023-01-10T04:35:09;9.50;;;4.45;;
26598;SDS011;14240;51.064;16.612;2023-01-10T04:37:34;11.85;;;4.65;;
26598;SDS011;14240;51.064;16.612;2023-01-10T04:40:01;11.97;;;5.10;;
26598;SDS011;14240;51.064;16.612;2023-01-10T04:42:27;9.45;;;4.40;;
26598;SDS011;14240;51.064;16.612;2023-01-10T04:44:54;8.43;;;4.70;;
26598;SDS011;14240;51.064;16.612;2023-01-10T04:47:19;10.90;;;4.97;;
26598;SDS011;14240;51.064;16.612;2023-01-10T04:49:45;12.15;;;5.57;;
26598;SDS011;14240;51.064;16.612;2023-01-10T04:52:11;10.95;;;5.60;;
26598;SDS011;14240;51.064;16.612;2023-01-10T04:54:37;9.98;;;5.38;;
26598;SDS011;14240;51.064;16.612;2023-01-10T04:57:02;9.80;;;4.80;;
26598;SDS011;14240;51.064;16.612;2023-01-10T04:59:29;11.00;;;4.90;;
26598;SDS011;14240;51.064;16.612;2023-01-10T05:01:56;11.13;;;5.25;;
26598;SDS011;14240;51.064;16.612;2023-01-10T05:04:22;9.80;;;5.55;;
26598;SDS011;14240;51.064;16.612;2023-01-10T05:06:48;12.85;;;5.97;;
26598;SDS011;14240;51.064;16.612;2023-01-10T05:09:13;8.25;;;4.38;;
26598;SDS011;14240;51.064;16.612;2023-01-10T05:11:39;8.13;;;4.53;;
26598;SDS011;14240;51.064;16.612;2023-01-10T05:14:05;10.52;;;4.38;;
26598;SDS011;14240;51.064;16.612;2023-01-10T05:16:31;10.20;;;5.25;;
26598;SDS011;14240;51.064;16.612;2023-01-10T05:18:56;9.75;;;4.78;;
26598;SDS011;14240;51.064;16.612;2023-01-10T05:21:22;9.13;;;4.95;;
26598;SDS011;14240;51.064;16.612;2023-01-10T05:23:48;12.88;;;5.03;;
26598;SDS011;14240;51.064;16.612;2023-01-10T05:26:15;8.75;;;4.85;;
26598;SDS011;14240;51.064;16.612;2023-01-10T05:28:42;9.52;;;4.97;;
26598;SDS011;14240;51.064;16.612;2023-01-10T05:31:09;8.75;;;4.80;;
26598;SDS011;14240;51.064;16.612;2023-01-10T05:33:37;10.20;;;5.30;;
26598;SDS011;14240;51.064;16.612;2023-01-10T05:36:04;8.75;;;5.10;;
26598;SDS011;14240;51.064;16.612;2023-01-10T05:38:31;10.00;;;5.07;;
26598;SDS011;14240;51.064;16.612;2023-01-10T05:40:57;10.38;;;5.20;;
26598;SDS011;14240;51.064;16.612;2023-01-10T05:43:24;7.38;;;4.53;;
26598;SDS011;14240;51.064;16.612;2023-01-10T05:45:51;10.85;;;5.07;;
26598;SDS011;14240;51.064;16.612;2023-01-10T05:48:17;13.65;;;5.40;;
26598;SDS011;14240;51.064;16.612;2023-01-10T05:50:45;10.48;;;5.32;;
26598;SDS011;14240;51.064;16.612;2023-01-10T05:53:11;20.35;;;6.07;;
26598;SDS011;14240;51.064;16.612;2023-01-10T05:55:36;10.20;;;4.80;;
26598;SDS011;14240;51.064;16.612;2023-01-10T05:58:02;12.27;;;5.00;;
26598;SDS011;14240;51.064;16.612;2023-01-10T06:00:28;10.40;;;4.93;;
26598;SDS011;14240;51.064;16.612;2023-01-10T06:02:54;9.63;;;5.07;;
26598;SDS011;14240;51.064;16.612;2023-01-10T06:05:21;13.68;;;5.25;;
26598;SDS011;14240;51.064;16.612;2023-01-10T06:07:47;11.27;;;5.60;;
26598;SDS011;14240;51.064;16.612;2023-01-10T06:10:13;8.40;;;5.03;;
26598;SDS011;14240;51.064;16.612;2023-01-10T06:12:40;11.82;;;4.90;;
26598;SDS011;14240;51.064;16.612;2023-01-10T06:15:06;8.23;;;5.28;;
26598;SDS011;14240;51.064;16.612;2023-01-10T06:17:33;7.50;;;4.37;;
26598;SDS011;14240;51.064;16.612;2023-01-10T06:19:59;12.30;;;5.95;;
26598;SDS011;14240;51.064;16.612;2023-01-10T06:22:25;9.45;;;5.68;;
26598;SDS011;14240;51.064;16.612;2023-01-10T06:24:51;13.40;;;6.18;;
26598;SDS011;14240;51.064;16.612;2023-01-10T06:27:18;9.73;;;4.97;;
26598;SDS011;14240;51.064;16.612;2023-01-10T06:29:44;13.40;;;5.85;;
26598;SDS011;14240;51.064;16.612;2023-01-10T06:32:10;14.18;;;5.78;;
26598;SDS011;14240;51.064;16.612;2023-01-10T06:34:36;10.55;;;5.60;;
26598;SDS011;14240;51.064;16.612;2023-01-10T06:37:01;14.32;;;6.15;;
26598;SDS011;14240;51.064;16.612;2023-01-10T06:39:27;12.98;;;6.07;;
26598;SDS011;14240;51.064;16.612;2023-01-10T06:41:53;11.65;;;5.88;;
26598;SDS011;14240;51.064;16.612;2023-01-10T06:44:18;13.02;;;6.07;;
26598;SDS011;14240;51.064;16.612;2023-01-10T06:46:44;13.35;;;5.32;;
26598;SDS011;14240;51.064;16.612;2023-01-10T06:49:10;13.50;;;6.57;;
26598;SDS011;14240;51.064;16.612;2023-01-10T06:51:36;20.27;;;6.82;;
26598;SDS011;14240;51.064;16.612;2023-01-10T06:54:01;15.88;;;6.50;;
26598;SDS011;14240;51.064;16.612;2023-01-10T06:56:27;14.25;;;6.05;;
26598;SDS011;14240;51.064;16.612;2023-01-10T06:58:53;16.38;;;6.88;;
26598;SDS011;14240;51.064;16.612;2023-01-10T07:01:19;17.05;;;7.28;;
26598;SDS011;14240;51.064;16.612;2023-01-10T07:03:45;15.30;;;6.32;;
26598;SDS011;14240;51.064;16.612;2023-01-10T07:06:12;17.40;;;7.35;;
26598;SDS011;14240;51.064;16.612;2023-01-10T07:08:44;17.50;;;6.45;;
26598;SDS011;14240;51.064;16.612;2023-01-10T07:11:11;14.00;;;7.22;;
26598;SDS011;14240;51.064;16.612;2023-01-10T07:16:05;13.00;;;4.90;;
26598;SDS011;14240;51.064;16.612;2023-01-10T07:18:33;17.30;;;6.43;;
26598;SDS011;14240;51.064;16.612;2023-01-10T07:20:59;16.67;;;7.82;;
26598;SDS011;14240;51.064;16.612;2023-01-10T07:23:25;15.18;;;6.18;;
26598;SDS011;14240;51.064;16.612;2023-01-10T07:25:51;16.05;;;6.65;;
26598;SDS011;14240;51.064;16.612;2023-01-10T07:28:17;13.40;;;6.00;;
26598;SDS011;14240;51.064;16.612;2023-01-10T07:30:43;17.35;;;6.35;;
26598;SDS011;14240;51.064;16.612;2023-01-10T07:33:08;16.75;;;5.93;;
26598;SDS011;14240;51.064;16.612;2023-01-10T07:35:34;14.90;;;5.93;;
26598;SDS011;14240;51.064;16.612;2023-01-10T07:38:00;12.55;;;6.63;;
26598;SDS011;14240;51.064;16.612;2023-01-10T07:40:27;17.10;;;6.53;;
26598;SDS011;14240;51.064;16.612;2023-01-10T07:42:59;15.90;;;6.30;;
26598;SDS011;14240;51.064;16.612;2023-01-10T07:45:27;14.50;;;7.05;;
26598;SDS011;14240;51.064;16.612;2023-01-10T07:47:57;12.98;;;6.60;;
26598;SDS011;14240;51.064;16.612;2023-01-10T07:50:24;12.60;;;6.78;;
26598;SDS011;14240;51.064;16.612;2023-01-10T07:52:51;17.87;;;7.27;;
26598;SDS011;14240;51.064;16.612;2023-01-10T07:55:16;11.85;;;6.32;;
26598;SDS011;14240;51.064;16.612;2023-01-10T07:57:42;12.05;;;6.70;;
26598;SDS011;14240;51.064;16.612;2023-01-10T08:00:09;11.60;;;5.57;;
26598;SDS011;14240;51.064;16.612;2023-01-10T08:02:35;14.82;;;7.15;;
26598;SDS011;14240;51.064;16.612;2023-01-10T08:05:00;14.30;;;6.90;;
26598;SDS011;14240;51.064;16.612;2023-01-10T08:07:29;29.98;;;13.80;;
26598;SDS011;14240;51.064;16.612;2023-01-10T08:09:56;19.35;;;9.60;;
26598;SDS011;14240;51.064;16.612;2023-01-10T08:12:21;13.68;;;6.40;;
26598;SDS011;14240;51.064;16.612;2023-01-10T08:14:57;16.70;;;6.85;;
26598;SDS011;14240;51.064;16.612;2023-01-10T08:17:23;11.40;;;6.38;;
26598;SDS011;14240;51.064;16.612;2023-01-10T08:19:49;16.90;;;7.53;;
26598;SDS011;14240;51.064;16.612;2023-01-10T08:22:15;14.93;;;7.03;;
26598;SDS011;14240;51.064;16.612;2023-01-10T08:24:41;16.15;;;6.93;;
26598;SDS011;14240;51.064;16.612;2023-01-10T08:27:06;15.40;;;7.60;;
26598;SDS011;14240;51.064;16.612;2023-01-10T08:29:32;13.43;;;8.20;;
26598;SDS011;14240;51.064;16.612;2023-01-10T08:31:58;16.63;;;6.82;;
26598;SDS011;14240;51.064;16.612;2023-01-10T08:34:24;20.15;;;7.93;;
26598;SDS011;14240;51.064;16.612;2023-01-10T08:36:50;15.60;;;7.63;;
26598;SDS011;14240;51.064;16.612;2023-01-10T08:39:17;13.80;;;7.10;;
26598;SDS011;14240;51.064;16.612;2023-01-10T08:41:46;13.82;;;6.38;;
26598;SDS011;14240;51.064;16.612;2023-01-10T08:44:12;15.82;;;6.38;;
26598;SDS011;14240;51.064;16.612;2023-01-10T08:46:39;13.97;;;6.90;;
26598;SDS011;14240;51.064;16.612;2023-01-10T08:49:06;13.63;;;5.95;;
26598;SDS011;14240;51.064;16.612;2023-01-10T08:51:32;11.27;;;6.22;;
26598;SDS011;14240;51.064;16.612;2023-01-10T08:53:58;15.93;;;5.55;;
26598;SDS011;14240;51.064;16.612;2023-01-10T08:56:23;14.15;;;5.82;;
26598;SDS011;14240;51.064;16.612;2023-01-10T08:58:49;13.35;;;6.15;;
26598;SDS011;14240;51.064;16.612;2023-01-10T09:01:15;11.40;;;6.20;;
26598;SDS011;14240;51.064;16.612;2023-01-10T09:03:41;14.82;;;6.68;;
26598;SDS011;14240;51.064;16.612;2023-01-10T09:06:07;13.48;;;5.60;;
26598;SDS011;14240;51.064;16.612;2023-01-10T09:08:33;16.98;;;6.10;;
26598;SDS011;14240;51.064;16.612;2023-01-10T09:11:00;16.65;;;6.55;;
26598;SDS011;14240;51.064;16.612;2023-01-10T09:13:27;16.90;;;7.55;;
26598;SDS011;14240;51.064;16.612;2023-01-10T09:15:53;17.70;;;7.67;;
26598;SDS011;14240;51.064;16.612;2023-01-10T09:18:19;15.70;;;6.60;;
26598;SDS011;14240;51.064;16.612;2023-01-10T09:20:45;17.60;;;7.47;;
26598;SDS011;14240;51.064;16.612;2023-01-10T09:23:12;16.35;;;7.18;;
26598;SDS011;14240;51.064;16.612;2023-01-10T09:25:42;14.27;;;6.93;;
26598;SDS011;14240;51.064;16.612;2023-01-10T09:28:08;13.70;;;6.28;;
26598;SDS011;14240;51.064;16.612;2023-01-10T09:30:34;22.33;;;8.45;;
26598;SDS011;14240;51.064;16.612;2023-01-10T09:33:00;16.48;;;6.40;;
26598;SDS011;14240;51.064;16.612;2023-01-10T09:35:27;15.48;;;7.30;;
26598;SDS011;14240;51.064;16.612;2023-01-10T09:37:55;15.45;;;7.60;;
26598;SDS011;14240;51.064;16.612;2023-01-10T09:45:29;20.15;;;8.18;;
26598;SDS011;14240;51.064;16.612;2023-01-10T09:48:11;17.88;;;8.57;;
26598;SDS011;14240;51.064;16.612;2023-01-10T09:53:15;13.32;;;6.00;;
26598;SDS011;14240;51.064;16.612;2023-01-10T09:55:47;13.15;;;6.85;;
26598;SDS011;14240;51.064;16.612;2023-01-10T09:58:18;22.58;;;7.40;;
26598;SDS011;14240;51.064;16.612;2023-01-10T10:06:14;15.77;;;7.22;;
26598;SDS011;14240;51.064;16.612;2023-01-10T10:08:40;21.10;;;7.97;;
26598;SDS011;14240;51.064;16.612;2023-01-10T10:11:21;15.70;;;6.80;;
26598;SDS011;14240;51.064;16.612;2023-01-10T10:13:55;16.85;;;6.68;;
26598;SDS011;14240;51.064;16.612;2023-01-10T10:24:17;19.27;;;7.60;;
26598;SDS011;14240;51.064;16.612;2023-01-10T10:32:22;15.85;;;7.32;;
26598;SDS011;14240;51.064;16.612;2023-01-10T10:37:47;17.48;;;7.10;;
26598;SDS011;14240;51.064;16.612;2023-01-10T10:40:17;13.90;;;5.75;;
26598;SDS011;14240;51.064;16.612;2023-01-10T10:42:49;23.85;;;8.70;;
26598;SDS011;14240;51.064;16.612;2023-01-10T10:45:21;16.77;;;7.93;;
26598;SDS011;14240;51.064;16.612;2023-01-10T10:48:11;17.48;;;7.85;;
26598;SDS011;14240;51.064;16.612;2023-01-10T10:50:40;24.10;;;7.82;;
26598;SDS011;14240;51.064;16.612;2023-01-10T10:53:16;18.80;;;7.85;;
26598;SDS011;14240;51.064;16.612;2023-01-10T10:55:43;21.55;;;8.23;;
26598;SDS011;14240;51.064;16.612;2023-01-10T10:58:09;19.30;;;8.38;;
26598;SDS011;14240;51.064;16.612;2023-01-10T11:00:36;17.52;;;8.50;;
26598;SDS011;14240;51.064;16.612;2023-01-10T11:05:47;17.13;;;7.47;;
26598;SDS011;14240;51.064;16.612;2023-01-10T11:08:14;18.23;;;8.85;;
26598;SDS011;14240;51.064;16.612;2023-01-10T11:10:43;22.95;;;8.05;;
26598;SDS011;14240;51.064;16.612;2023-01-10T11:18:26;17.25;;;7.80;;
26598;SDS011;14240;51.064;16.612;2023-01-10T11:20:57;15.93;;;7.47;;
26598;SDS011;14240;51.064;16.612;2023-01-10T11:26:29;18.75;;;7.60;;
26598;SDS011;14240;51.064;16.612;2023-01-10T11:34:04;17.90;;;6.78;;
26598;SDS011;14240;51.064;16.612;2023-01-10T11:36:50;19.02;;;7.68;;
26598;SDS011;14240;51.064;16.612;2023-01-10T11:39:18;16.35;;;7.72;;
26598;SDS011;14240;51.064;16.612;2023-01-10T11:41:44;16.13;;;7.80;;
26598;SDS011;14240;51.064;16.612;2023-01-10T11:44:26;17.83;;;6.60;;
26598;SDS011;14240;51.064;16.612;2023-01-10T11:47:03;19.60;;;8.00;;
26598;SDS011;14240;51.064;16.612;2023-01-10T11:49:38;29.30;;;8.63;;
26598;SDS011;14240;51.064;16.612;2023-01-10T11:52:24;18.17;;;7.93;;
26598;SDS011;14240;51.064;16.612;2023-01-10T11:54:54;14.25;;;6.50;;
26598;SDS011;14240;51.064;16.612;2023-01-10T11:57:29;14.38;;;6.80;;
26598;SDS011;14240;51.064;16.612;2023-01-10T12:00:01;12.02;;;6.68;;
26598;SDS011;14240;51.064;16.612;2023-01-10T12:02:29;19.17;;;7.18;;
26598;SDS011;14240;51.064;16.612;2023-01-10T12:05:00;12.60;;;6.90;;
26598;SDS011;14240;51.064;16.612;2023-01-10T12:10:22;13.85;;;6.28;;
26598;SDS011;14240;51.064;16.612;2023-01-10T12:12:54;17.02;;;6.13;;
26598;SDS011;14240;51.064;16.612;2023-01-10T12:17:47;20.25;;;8.30;;
26598;SDS011;14240;51.064;16.612;2023-01-10T12:20:14;13.80;;;6.53;;
26598;SDS011;14240;51.064;16.612;2023-01-10T12:22:41;20.15;;;7.75;;
26598;SDS011;14240;51.064;16.612;2023-01-10T12:25:28;12.23;;;6.63;;
26598;SDS011;14240;51.064;16.612;2023-01-10T12:28:05;19.90;;;7.18;;
26598;SDS011;14240;51.064;16.612;2023-01-10T12:30:43;19.33;;;7.38;;
26598;SDS011;14240;51.064;16.612;2023-01-10T12:33:21;10.27;;;5.78;;
26598;SDS011;14240;51.064;16.612;2023-01-10T12:35:59;33.08;;;13.52;;
26598;SDS011;14240;51.064;16.612;2023-01-10T12:38:35;46.47;;;21.10;;
26598;SDS011;14240;51.064;16.612;2023-01-10T12:44:48;15.57;;;7.60;;
26598;SDS011;14240;51.064;16.612;2023-01-10T12:47:34;22.67;;;7.85;;
26598;SDS011;14240;51.064;16.612;2023-01-10T12:50:29;24.45;;;8.88;;
26598;SDS011;14240;51.064;16.612;2023-01-10T12:53:10;21.33;;;8.85;;
26598;SDS011;14240;51.064;16.612;2023-01-10T12:55:54;17.58;;;8.10;;
26598;SDS011;14240;51.064;16.612;2023-01-10T13:01:03;18.08;;;8.50;;
26598;SDS011;14240;51.064;16.612;2023-01-10T13:03:31;17.55;;;8.18;;
26598;SDS011;14240;51.064;16.612;2023-01-10T13:08:25;19.90;;;7.32;;
26598;SDS011;14240;51.064;16.612;2023-01-10T13:10:53;15.77;;;8.35;;
26598;SDS011;14240;51.064;16.612;2023-01-10T13:13:35;19.48;;;10.93;;
26598;SDS011;14240;51.064;16.612;2023-01-10T13:16:23;12.50;;;7.80;;
26598;SDS011;14240;51.064;16.612;2023-01-10T13:21:36;27.60;;;9.50;;
26598;SDS011;14240;51.064;16.612;2023-01-10T13:29:22;33.20;;;14.45;;
26598;SDS011;14240;51.064;16.612;2023-01-10T13:32:26;36.22;;;15.32;;
26598;SDS011;14240;51.064;16.612;2023-01-10T13:35:08;57.50;;;26.17;;
26598;SDS011;14240;51.064;16.612;2023-01-10T13:37:43;16.40;;;8.43;;
26598;SDS011;14240;51.064;16.612;2023-01-10T13:40:19;17.67;;;8.05;;
26598;SDS011;14240;51.064;16.612;2023-01-10T13:48:41;37.95;;;15.43;;
26598;SDS011;14240;51.064;16.612;2023-01-10T13:51:20;18.02;;;10.07;;
26598;SDS011;14240;51.064;16.612;2023-01-10T14:02:21;24.60;;;13.15;;
26598;SDS011;14240;51.064;16.612;2023-01-10T14:07:44;18.35;;;8.88;;
26598;SDS011;14240;51.064;16.612;2023-01-10T14:10:22;23.55;;;8.50;;
26598;SDS011;14240;51.064;16.612;2023-01-10T14:12:53;21.25;;;11.32;;
26598;SDS011;14240;51.064;16.612;2023-01-10T14:15:22;19.13;;;9.07;;
26598;SDS011;14240;51.064;16.612;2023-01-10T14:18:01;23.45;;;10.52;;
26598;SDS011;14240;51.064;16.612;2023-01-10T14:20:29;77.28;;;38.42;;
26598;SDS011;14240;51.064;16.612;2023-01-10T14:25:44;28.80;;;13.88;;
26598;SDS011;14240;51.064;16.612;2023-01-10T14:28:20;40.22;;;21.08;;
26598;SDS011;14240;51.064;16.612;2023-01-10T14:33:26;17.60;;;10.25;;
26598;SDS011;14240;51.064;16.612;2023-01-10T14:35:54;17.13;;;9.18;;
26598;SDS011;14240;51.064;16.612;2023-01-10T14:38:25;15.93;;;8.50;;
26598;SDS011;14240;51.064;16.612;2023-01-10T14:41:38;15.02;;;8.02;;
26598;SDS011;14240;51.064;16.612;2023-01-10T14:44:09;169.07;;;59.95;;
26598;SDS011;14240;51.064;16.612;2023-01-10T14:46:42;112.85;;;39.40;;
26598;SDS011;14240;51.064;16.612;2023-01-10T14:49:47;96.22;;;33.35;;
26598;SDS011;14240;51.064;16.612;2023-01-10T14:52:15;35.80;;;13.90;;
26598;SDS011;14240;51.064;16.612;2023-01-10T14:54:47;138.70;;;54.38;;
26598;SDS011;14240;51.064;16.612;2023-01-10T14:57:19;122.78;;;46.42;;
26598;SDS011;14240;51.064;16.612;2023-01-10T14:59:47;85.40;;;34.75;;
26598;SDS011;14240;51.064;16.612;2023-01-10T15:02:16;130.05;;;59.33;;
26598;SDS011;14240;51.064;16.612;2023-01-10T15:04:54;43.78;;;25.90;;
26598;SDS011;14240;51.064;16.612;2023-01-10T15:07:33;61.72;;;43.25;;
26598;SDS011;14240;51.064;16.612;2023-01-10T15:10:00;38.78;;;30.92;;
26598;SDS011;14240;51.064;16.612;2023-01-10T15:12:44;28.40;;;14.80;;
26598;SDS011;14240;51.064;16.612;2023-01-10T15:15:17;124.78;;;50.00;;
26598;SDS011;14240;51.064;16.612;2023-01-10T15:17:54;163.52;;;62.45;;
26598;SDS011;14240;51.064;16.612;2023-01-10T15:20:20;94.53;;;38.13;;
26598;SDS011;14240;51.064;16.612;2023-01-10T15:22:48;61.55;;;31.17;;
26598;SDS011;14240;51.064;16.612;2023-01-10T15:27:47;27.95;;;12.07;;
26598;SDS011;14240;51.064;16.612;2023-01-10T15:32:54;21.00;;;8.70;;
26598;SDS011;14240;51.064;16.612;2023-01-10T15:35:25;19.13;;;8.95;;
26598;SDS011;14240;51.064;16.612;2023-01-10T15:37:57;17.05;;;7.43;;
26598;SDS011;14240;51.064;16.612;2023-01-10T15:40:28;22.98;;;8.73;;
26598;SDS011;14240;51.064;16.612;2023-01-10T15:45:41;12.82;;;7.65;;
26598;SDS011;14240;51.064;16.612;2023-01-10T15:56:19;39.20;;;18.17;;
26598;SDS011;14240;51.064;16.612;2023-01-10T16:01:53;34.55;;;15.32;;
26598;SDS011;14240;51.064;16.612;2023-01-10T16:04:20;21.38;;;11.50;;
26598;SDS011;14240;51.064;16.612;2023-01-10T16:06:46;26.15;;;11.55;;
26598;SDS011;14240;51.064;16.612;2023-01-10T16:09:20;25.00;;;12.25;;
26598;SDS011;14240;51.064;16.612;2023-01-10T16:11:47;16.15;;;8.48;;
26598;SDS011;14240;51.064;16.612;2023-01-10T16:14:34;14.50;;;8.15;;
26598;SDS011;14240;51.064;16.612;2023-01-10T16:17:00;17.58;;;8.65;;
26598;SDS011;14240;51.064;16.612;2023-01-10T16:19:27;20.40;;;10.67;;
26598;SDS011;14240;51.064;16.612;2023-01-10T16:21:56;30.92;;;14.38;;
26598;SDS011;14240;51.064;16.612;2023-01-10T16:24:24;59.03;;;25.33;;
26598;SDS011;14240;51.064;16.612;2023-01-10T16:26:52;67.43;;;34.38;;
26598;SDS011;14240;51.064;16.612;2023-01-10T16:31:46;47.30;;;24.83;;
26598;SDS011;14240;51.064;16.612;2023-01-10T16:34:19;58.22;;;25.08;;
26598;SDS011;14240;51.064;16.612;2023-01-10T16:36:45;47.22;;;21.25;;
26598;SDS011;14240;51.064;16.612;2023-01-10T16:39:15;36.92;;;17.48;;
26598;SDS011;14240;51.064;16.612;2023-01-10T16:41:43;33.25;;;15.25;;
26598;SDS011;14240;51.064;16.612;2023-01-10T16:44:28;37.25;;;13.32;;
26598;SDS011;14240;51.064;16.612;2023-01-10T16:46:55;29.50;;;11.02;;
26598;SDS011;14240;51.064;16.612;2023-01-10T16:49:21;25.83;;;12.20;;
26598;SDS011;14240;51.064;16.612;2023-01-10T16:51:47;28.77;;;13.50;;
26598;SDS011;14240;51.064;16.612;2023-01-10T16:54:14;26.80;;;11.50;;
26598;SDS011;14240;51.064;16.612;2023-01-10T16:56:41;19.95;;;10.77;;
26598;SDS011;14240;51.064;16.612;2023-01-10T16:59:09;17.00;;;10.80;;
26598;SDS011;14240;51.064;16.612;2023-01-10T17:01:39;19.63;;;10.73;;
26598;SDS011;14240;51.064;16.612;2023-01-10T17:04:08;18.27;;;9.73;;
26598;SDS011;14240;51.064;16.612;2023-01-10T17:06:36;27.73;;;12.85;;
26598;SDS011;14240;51.064;16.612;2023-01-10T17:09:04;12.80;;;8.32;;